AEE317 EFHK-UUWW
Flight info
| Callsign | AEE317 |
|---|---|
| Flight time | N/A |
| Altitude | 37000 |
| Route | ARVEP T82 RATMU DCT INLOG T73 DESUD T834 ADOKU/K0822F270 T834 BEKIP BEKIP3B |
| Aircraft | B737/M-SDE2E3FGHIRWXY/LB1 |
Departure
| Time | 2026-05-04 12:18 |
|---|---|
| Airport | Helsinki Vantaa Airport (EFHK) |
Arrival
| Time | N/A |
|---|---|
| Airport | Vnukovo International Airport (UUWW) |
| Time | Latitude | Longitude | Altitude | Speed | Heading |
|---|---|---|---|---|---|
| 2026-05-04 11:56 | 60.31908 | 24.96615 | 166 ft | 0 kts | 137° |
| 2026-05-04 12:08 | 60.31925 | 24.96583 | 166 ft | 4 kts | 137° |
| 2026-05-04 12:08 | 60.31942 | 24.96553 | 166 ft | 4 kts | 143° |
| 2026-05-04 12:09 | 60.31959 | 24.96546 | 166 ft | 4 kts | 221° |
| 2026-05-04 12:09 | 60.31976 | 24.96582 | 165 ft | 4 kts | 230° |
| 2026-05-04 12:09 | 60.31982 | 24.96597 | 165 ft | 1 kts | 227° |
| 2026-05-04 12:11 | 60.31977 | 24.96586 | 165 ft | 4 kts | 227° |
| 2026-05-04 12:12 | 60.31973 | 24.96575 | 165 ft | 0 kts | 228° |
| 2026-05-04 12:12 | 60.31959 | 24.96545 | 166 ft | 4 kts | 228° |
| 2026-05-04 12:12 | 60.31935 | 24.96490 | 165 ft | 7 kts | 228° |
| 2026-05-04 12:13 | 60.31890 | 24.96390 | 166 ft | 12 kts | 228° |
| 2026-05-04 12:14 | 60.32519 | 24.95157 | 179 ft | 19 kts | 341° |
| 2026-05-04 12:15 | 60.32642 | 24.95076 | 180 ft | 19 kts | 342° |
| 2026-05-04 12:15 | 60.32780 | 24.94987 | 176 ft | 22 kts | 342° |
| 2026-05-04 12:15 | 60.32923 | 24.94857 | 176 ft | 21 kts | 319° |
| 2026-05-04 12:15 | 60.33020 | 24.94677 | 180 ft | 13 kts | 317° |
| 2026-05-04 12:16 | 60.33048 | 24.94550 | 195 ft | 8 kts | 273° |
| 2026-05-04 12:16 | 60.33049 | 24.94479 | 193 ft | 3 kts | 271° |
| 2026-05-04 12:16 | 60.33049 | 24.94436 | 198 ft | 4 kts | 272° |
| 2026-05-04 12:16 | 60.33052 | 24.94335 | 195 ft | 12 kts | 274° |
| 2026-05-04 12:17 | 60.33030 | 24.94204 | 193 ft | 0 kts | 227° |
| 2026-05-04 12:17 | 60.33030 | 24.94203 | 187 ft | 0 kts | 227° |
| 2026-05-04 12:17 | 60.32905 | 24.93930 | 183 ft | 65 kts | 227° |
| 2026-05-04 12:17 | 60.32425 | 24.92874 | 172 ft | 136 kts | 227° |
| 2026-05-04 12:18 | 60.31677 | 24.91199 | 337 ft | 176 kts | 228° |
| 2026-05-04 12:18 | 60.30823 | 24.89309 | 1004 ft | 186 kts | 229° |
| 2026-05-04 12:18 | 60.29996 | 24.87324 | 1939 ft | 183 kts | 242° |
| 2026-05-04 12:18 | 60.29804 | 24.84710 | 2481 ft | 206 kts | 285° |
| 2026-05-04 12:19 | 60.30484 | 24.81952 | 2913 ft | 233 kts | 298° |
| 2026-05-04 12:19 | 60.31285 | 24.78869 | 3415 ft | 256 kts | 294° |
| 2026-05-04 12:19 | 60.32117 | 24.75720 | 4475 ft | 259 kts | 298° |
| 2026-05-04 12:19 | 60.33044 | 24.72595 | 5522 ft | 262 kts | 297° |
| 2026-05-04 12:20 | 60.33973 | 24.69403 | 6516 ft | 265 kts | 296° |
| 2026-05-04 12:20 | 60.35186 | 24.66508 | 7466 ft | 279 kts | 319° |
| 2026-05-04 12:20 | 60.37008 | 24.64881 | 8440 ft | 293 kts | 346° |
| 2026-05-04 12:20 | 60.39078 | 24.65192 | 9336 ft | 310 kts | 17° |
| 2026-05-04 12:21 | 60.40951 | 24.67365 | 10127 ft | 323 kts | 32° |
| 2026-05-04 12:21 | 60.42854 | 24.70098 | 10419 ft | 350 kts | 33° |
| 2026-05-04 12:21 | 60.44890 | 24.73164 | 10625 ft | 380 kts | 40° |
| 2026-05-04 12:21 | 60.46516 | 24.77570 | 10905 ft | 403 kts | 66° |
| 2026-05-04 12:22 | 60.47169 | 24.83097 | 11540 ft | 407 kts | 92° |
| 2026-05-04 12:22 | 60.46766 | 24.88717 | 12243 ft | 404 kts | 110° |
| 2026-05-04 12:22 | 60.45998 | 24.94231 | 12995 ft | 409 kts | 111° |
| 2026-05-04 12:22 | 60.45185 | 24.99819 | 13723 ft | 416 kts | 112° |
| 2026-05-04 12:23 | 60.44358 | 25.05472 | 14483 ft | 421 kts | 112° |
| 2026-05-04 12:23 | 60.43530 | 25.11196 | 15270 ft | 426 kts | 112° |
| 2026-05-04 12:23 | 60.42701 | 25.16997 | 16012 ft | 431 kts | 111° |
| 2026-05-04 12:23 | 60.41867 | 25.22881 | 16700 ft | 438 kts | 111° |
| 2026-05-04 12:24 | 60.41024 | 25.28860 | 17369 ft | 444 kts | 111° |
| 2026-05-04 12:24 | 60.40173 | 25.34894 | 18036 ft | 449 kts | 111° |
| 2026-05-04 12:24 | 60.39324 | 25.40913 | 18678 ft | 453 kts | 111° |
| 2026-05-04 12:24 | 60.38441 | 25.47152 | 19348 ft | 457 kts | 111° |
| 2026-05-04 12:25 | 60.37561 | 25.53348 | 20032 ft | 460 kts | 111° |
| 2026-05-04 12:25 | 60.36684 | 25.59499 | 20674 ft | 463 kts | 112° |
| 2026-05-04 12:25 | 60.35789 | 25.65750 | 21302 ft | 466 kts | 112° |
| 2026-05-04 12:25 | 60.34882 | 25.72050 | 21926 ft | 468 kts | 112° |
| 2026-05-04 12:26 | 60.33969 | 25.78372 | 22541 ft | 470 kts | 112° |
| 2026-05-04 12:26 | 60.33049 | 25.84719 | 23121 ft | 472 kts | 112° |
| 2026-05-04 12:26 | 60.32119 | 25.91104 | 23669 ft | 475 kts | 112° |
| 2026-05-04 12:26 | 60.31182 | 25.97519 | 24192 ft | 478 kts | 112° |
| 2026-05-04 12:27 | 60.30238 | 26.03958 | 24737 ft | 479 kts | 112° |
| 2026-05-04 12:27 | 60.29286 | 26.10417 | 25184 ft | 483 kts | 112° |
| 2026-05-04 12:27 | 60.28336 | 26.16835 | 25565 ft | 487 kts | 112° |
| 2026-05-04 12:27 | 60.27361 | 26.23405 | 25952 ft | 491 kts | 112° |
| 2026-05-04 12:28 | 60.26385 | 26.29976 | 26346 ft | 494 kts | 112° |
| 2026-05-04 12:28 | 60.25400 | 26.36570 | 26722 ft | 497 kts | 112° |
| 2026-05-04 12:28 | 60.24606 | 26.42144 | 27038 ft | 501 kts | 108° |
| 2026-05-04 12:28 | 60.24071 | 26.47784 | 27317 ft | 508 kts | 103° |
| 2026-05-04 12:29 | 60.23567 | 26.54384 | 27651 ft | 509 kts | 105° |
| 2026-05-04 12:29 | 60.22815 | 26.60869 | 27922 ft | 508 kts | 111° |
| 2026-05-04 12:29 | 60.21844 | 26.67033 | 28202 ft | 508 kts | 114° |
| 2026-05-04 12:29 | 60.20709 | 26.73545 | 28558 ft | 508 kts | 115° |
| 2026-05-04 12:30 | 60.19578 | 26.80033 | 28969 ft | 508 kts | 115° |
| 2026-05-04 12:30 | 60.18481 | 26.86613 | 29412 ft | 508 kts | 114° |
| 2026-05-04 12:30 | 60.17389 | 26.93371 | 29819 ft | 509 kts | 112° |
| 2026-05-04 12:30 | 60.16519 | 27.00060 | 30213 ft | 513 kts | 107° |
| 2026-05-04 12:31 | 60.15856 | 27.06569 | 30586 ft | 514 kts | 106° |
| 2026-05-04 12:31 | 60.15225 | 27.13367 | 30959 ft | 514 kts | 105° |
| 2026-05-04 12:31 | 60.14613 | 27.20124 | 31284 ft | 515 kts | 105° |
| 2026-05-04 12:31 | 60.13978 | 27.27026 | 31628 ft | 515 kts | 105° |
| 2026-05-04 12:32 | 60.13429 | 27.32826 | 31926 ft | 514 kts | 105° |
| 2026-05-04 12:32 | 60.12516 | 27.42093 | 32377 ft | 514 kts | 106° |
| 2026-05-04 12:32 | 60.12228 | 27.44959 | 32509 ft | 514 kts | 106° |
| 2026-05-04 12:33 | 60.11726 | 27.49673 | 32728 ft | 513 kts | 107° |
| 2026-05-04 12:33 | 60.11310 | 27.53640 | 32925 ft | 513 kts | 107° |